Heat Index SAI AWOS Graphical Display Untitled Document
Bertrand Chaffee Hospital Heliport (2NK6) Springville, New York, USA
350
23:19
26/08/2016
03
N/A
VRB
30.15
2800
1420
76(F), 24(C)
62(F), 17(C)
78 F
62%
CLR
10
N/A
0"
N/A
23:19 zulu Wind 350 at 03 Knots, Altimeter 30.15
METAR K2NK6 262319Z AUTO 35003KT V0RB 10SM CLR 24/17 A3015 A02 P0000
METAR:
FAA Disclaimer--Advisory Use ONLY, not for flight info--
INFO:
Wind Direction:
Wind Speed:
Wind Gust:
Wind Variable:
Altimeter:
Dens Alt:
Elev:
Temp:
Dwpt:
Heat Index
Rel Humidity:
Ceiling:
Visibility:
Prsnt Wea:
PCPN:
Remarks:
How to read the WebPage